createdAt,value
2022-08-11T00:04:10.701Z,1.60
2022-08-11T00:06:40.042Z,1.67
2022-08-11T00:09:15.995Z,1.50
2022-08-11T00:11:58.661Z,1.60
2022-08-11T00:14:37.821Z,1.73
2022-08-11T00:17:06.102Z,1.40
2022-08-11T00:20:12.165Z,1.83
2022-08-11T00:22:23.431Z,1.60
2022-08-11T00:24:56.049Z,1.52
2022-08-11T00:27:38.745Z,1.70
2022-08-11T00:30:08.790Z,1.40
2022-08-11T00:32:40.016Z,1.63
2022-08-11T00:35:54.097Z,1.35
2022-08-11T00:38:17.030Z,1.38
2022-08-11T00:41:11.494Z,1.80
2022-08-11T00:44:10.663Z,1.70
2022-08-11T00:46:56.517Z,1.90
2022-08-11T00:49:38.105Z,2.97
2022-08-11T00:52:15.998Z,1.70
2022-08-11T00:55:24.963Z,1.90
2022-08-11T00:58:22.695Z,1.83
2022-08-11T01:01:11.974Z,1.33
2022-08-11T01:04:00.206Z,1.40
2022-08-11T01:07:03.464Z,1.35
2022-08-11T01:10:23.902Z,2.03
2022-08-11T01:13:03.267Z,1.67
2022-08-11T01:18:47.723Z,1.30
2022-08-11T01:21:33.057Z,1.70
2022-08-11T01:24:28.787Z,1.88
2022-08-11T01:27:18.871Z,1.73
2022-08-11T01:30:23.869Z,2.03
2022-08-11T01:33:08.635Z,1.80
2022-08-11T01:36:09.170Z,1.50
2022-08-11T01:38:48.369Z,1.58
2022-08-11T01:41:20.686Z,1.65
2022-08-11T01:44:25.820Z,1.48
2022-08-11T01:46:56.501Z,1.60
2022-08-11T01:50:07.774Z,1.88
2022-08-11T01:52:34.863Z,1.45
2022-08-11T01:55:14.898Z,1.70
2022-08-11T01:57:53.494Z,1.80
2022-08-11T02:00:31.301Z,1.73
2022-08-11T02:03:21.924Z,1.40
2022-08-11T02:06:02.432Z,1.83
2022-08-11T02:08:52.311Z,1.35
2022-08-11T02:11:35.840Z,1.63
2022-08-11T02:14:21.221Z,1.90
2022-08-11T02:17:06.154Z,1.55
2022-08-11T02:20:13.828Z,1.42
2022-08-11T02:23:14.395Z,1.60
2022-08-11T02:26:10.086Z,1.77
2022-08-11T02:28:49.839Z,2.15
2022-08-11T02:32:24.508Z,1.80
2022-08-11T02:35:11.332Z,1.70
2022-08-11T02:38:08.870Z,1.80
2022-08-11T02:41:49.924Z,2.20
2022-08-11T02:44:36.968Z,2.13
2022-08-11T02:47:14.544Z,1.83
2022-08-11T02:50:12.403Z,1.90
2022-08-11T02:52:48.108Z,2.40
2022-08-11T02:55:56.052Z,2.08
2022-08-11T02:59:09.273Z,1.70
2022-08-11T03:02:04.838Z,1.50
2022-08-11T03:04:44.945Z,2.20
2022-08-11T03:07:29.498Z,1.92
2022-08-11T03:10:13.203Z,2.20
2022-08-11T03:13:10.435Z,1.30
2022-08-11T03:18:57.932Z,1.90
2022-08-11T03:22:01.121Z,1.95
2022-08-11T03:24:27.331Z,2.50
2022-08-11T03:27:24.704Z,1.80
2022-08-11T03:30:05.226Z,1.42
2022-08-11T03:33:15.596Z,2.05
2022-08-11T03:35:49.163Z,2.08
2022-08-11T03:38:20.878Z,1.77
2022-08-11T03:42:01.239Z,2.50
2022-08-11T03:44:35.029Z,2.33
2022-08-11T03:47:31.974Z,1.95
2022-08-11T03:50:07.940Z,2.58
2022-08-11T03:52:55.096Z,2.10
2022-08-11T03:55:33.929Z,2.47
2022-08-11T03:58:22.387Z,1.90
2022-08-11T04:00:58.008Z,2.22
2022-08-11T04:04:15.272Z,2.42
2022-08-11T04:06:56.090Z,1.73
2022-08-11T04:09:46.975Z,1.90
2022-08-11T04:15:49.513Z,2.05
2022-08-11T04:18:26.498Z,2.50
2022-08-11T04:21:16.851Z,2.25
2022-08-11T04:24:34.974Z,2.10
2022-08-11T04:27:14.201Z,1.90
2022-08-11T04:30:04.957Z,2.65
2022-08-11T04:33:03.326Z,2.40
2022-08-11T04:35:48.803Z,2.10
2022-08-11T04:38:54.902Z,1.73
2022-08-11T04:42:00.171Z,1.85
2022-08-11T04:44:45.650Z,2.63
2022-08-11T04:47:58.151Z,2.13
2022-08-11T04:51:24.967Z,2.40
2022-08-11T04:54:47.077Z,2.33
2022-08-11T05:01:36.591Z,2.67
2022-08-11T05:04:32.723Z,2.40
2022-08-11T05:07:25.935Z,2.78
2022-08-11T05:10:10.726Z,2.50
2022-08-11T05:12:50.183Z,3.03
2022-08-11T05:15:42.543Z,2.60
2022-08-11T05:18:38.436Z,2.20
2022-08-11T05:21:27.619Z,2.50
2022-08-11T05:24:22.408Z,2.30
2022-08-11T05:27:13.660Z,2.22
2022-08-11T05:30:02.085Z,1.92
2022-08-11T05:33:01.402Z,2.00
2022-08-11T05:36:00.217Z,1.50
2022-08-11T05:38:49.694Z,1.70
2022-08-11T05:41:38.410Z,1.95
2022-08-11T05:44:23.712Z,1.75
2022-08-11T05:47:09.329Z,1.90
2022-08-11T05:49:55.304Z,2.05
2022-08-11T05:52:46.816Z,1.88
2022-08-11T05:55:33.307Z,1.75
2022-08-11T05:58:03.069Z,1.50
2022-08-11T06:00:33.815Z,1.63
2022-08-11T06:03:04.041Z,1.45
2022-08-11T06:05:38.346Z,1.48
2022-08-11T06:08:12.574Z,1.30
2022-08-11T06:10:43.805Z,1.33
2022-08-11T06:13:10.890Z,1.00
2022-08-11T06:15:46.023Z,1.15
2022-08-11T06:18:13.618Z,1.20
2022-08-11T06:20:55.653Z,1.52
2022-08-11T06:23:25.112Z,1.20
2022-08-11T06:25:52.643Z,1.52
2022-08-11T06:28:21.390Z,1.20
2022-08-11T06:30:48.881Z,1.35
2022-08-11T06:33:18.638Z,1.27
2022-08-11T06:36:11.887Z,1.10
2022-08-11T06:38:54.136Z,1.10
2022-08-11T06:41:30.480Z,1.17
2022-08-11T06:44:06.667Z,1.10
2022-08-11T06:46:41.575Z,0.90
2022-08-11T06:49:28.892Z,1.30
2022-08-11T06:51:56.908Z,1.00
2022-08-11T06:54:34.171Z,1.70
2022-08-11T06:57:35.712Z,1.00
2022-08-11T07:00:21.396Z,0.90
2022-08-11T07:03:08.285Z,1.05
2022-08-11T07:05:37.795Z,1.17
2022-08-11T07:08:44.836Z,0.93
2022-08-11T07:12:07.616Z,0.90
2022-08-11T07:14:53.164Z,1.10
2022-08-11T07:17:26.755Z,0.90
2022-08-11T07:20:15.235Z,0.90
2022-08-11T07:23:10.173Z,1.00
2022-08-11T07:25:58.236Z,1.15
2022-08-11T07:28:45.606Z,1.25
2022-08-11T07:31:14.949Z,0.88
2022-08-11T07:34:07.816Z,1.10
2022-08-11T07:36:41.253Z,0.90
2022-08-11T07:39:13.520Z,0.90
2022-08-11T07:41:40.207Z,1.20
2022-08-11T07:44:10.485Z,1.02
2022-08-11T07:47:01.004Z,1.42
2022-08-11T07:49:48.012Z,1.20
2022-08-11T07:52:29.861Z,1.45
2022-08-11T07:54:59.875Z,0.95
2022-08-11T07:58:13.553Z,1.88
2022-08-11T08:01:22.271Z,0.98
2022-08-11T08:04:08.342Z,0.80
2022-08-11T08:06:54.468Z,1.10
2022-08-11T08:09:44.427Z,0.85
2022-08-11T08:12:31.156Z,0.90
2022-08-11T08:15:16.753Z,0.90
2022-08-11T08:18:13.608Z,1.15
2022-08-11T08:20:45.411Z,0.90
2022-08-11T08:23:12.007Z,0.80
2022-08-11T08:25:40.760Z,0.90
2022-08-11T08:28:15.142Z,1.00
2022-08-11T08:30:50.987Z,1.20
2022-08-11T08:33:24.916Z,1.58
2022-08-11T08:36:11.804Z,0.90
2022-08-11T08:38:43.151Z,0.80
2022-08-11T08:41:10.312Z,1.00
2022-08-11T08:44:37.942Z,1.00
2022-08-11T08:46:58.295Z,0.80
2022-08-11T08:49:40.239Z,1.05
2022-08-11T08:55:03.623Z,1.23
2022-08-11T08:57:39.200Z,1.05
2022-08-11T09:00:08.691Z,1.52
2022-08-11T09:02:36.446Z,1.08
2022-08-11T09:05:14.943Z,0.80
2022-08-11T09:07:47.672Z,0.90
2022-08-11T09:10:15.195Z,0.73
2022-08-11T09:12:45.220Z,0.80
2022-08-11T09:15:19.786Z,1.05
2022-08-11T09:17:50.469Z,0.90
2022-08-11T09:20:51.065Z,0.73
2022-08-11T09:26:41.497Z,0.82
2022-08-11T09:29:10.887Z,0.93
2022-08-11T09:31:41.452Z,0.70
2022-08-11T09:34:10.098Z,0.70
2022-08-11T09:36:57.509Z,0.75
2022-08-11T09:39:43.045Z,0.70
2022-08-11T09:42:11.305Z,0.98
2022-08-11T09:44:50.045Z,0.90
2022-08-11T09:47:29.153Z,0.85
2022-08-11T09:50:10.208Z,0.80
2022-08-11T09:52:38.787Z,0.90
2022-08-11T09:55:12.330Z,1.00
2022-08-11T09:57:59.037Z,0.90
2022-08-11T10:00:37.209Z,1.00
2022-08-11T10:03:19.151Z,0.80
2022-08-11T10:06:13.267Z,0.95
2022-08-11T10:08:42.113Z,0.90
2022-08-11T10:11:15.008Z,0.95
2022-08-11T10:14:33.320Z,1.00
2022-08-11T10:16:49.445Z,1.00
2022-08-11T10:19:20.774Z,1.13
2022-08-11T10:22:13.841Z,0.90
2022-08-11T10:25:00.349Z,0.95
2022-08-11T10:28:16.867Z,1.10
2022-08-11T10:30:36.705Z,1.10
2022-08-11T10:33:36.880Z,0.95
2022-08-11T10:36:16.644Z,0.98
2022-08-11T10:38:45.805Z,0.93
2022-08-11T10:41:31.875Z,0.95
2022-08-11T10:44:01.431Z,1.15
2022-08-11T10:46:48.415Z,0.90
2022-08-11T10:49:15.007Z,1.42
2022-08-11T10:55:09.663Z,1.30
2022-08-11T10:58:04.864Z,1.25
2022-08-11T11:00:32.289Z,0.88
2022-08-11T11:03:05.446Z,1.02
2022-08-11T11:06:28.666Z,0.90
2022-08-11T11:08:57.613Z,1.10
2022-08-11T11:11:51.821Z,1.08
2022-08-11T11:14:45.847Z,0.98
2022-08-11T11:17:25.806Z,1.00
2022-08-11T11:19:57.698Z,1.30
2022-08-11T11:22:38.516Z,1.10
2022-08-11T11:25:30.018Z,1.25
2022-08-11T11:28:19.574Z,1.20
2022-08-11T11:30:57.302Z,1.48
2022-08-11T11:33:35.362Z,1.00
2022-08-11T11:36:27.902Z,1.17
2022-08-11T11:38:56.426Z,0.90
2022-08-11T11:41:26.754Z,1.10
2022-08-11T11:43:57.205Z,1.02
2022-08-11T11:46:30.394Z,1.30
2022-08-11T11:48:58.695Z,1.23
2022-08-11T11:51:25.840Z,1.17
2022-08-11T11:53:53.110Z,1.50
2022-08-11T11:56:22.610Z,1.20
2022-08-11T11:59:08.299Z,1.00
2022-08-11T12:01:38.034Z,1.33
2022-08-11T12:04:08.214Z,1.10
2022-08-11T12:06:35.066Z,1.10
2022-08-11T12:09:05.255Z,1.10
2022-08-11T12:11:50.802Z,1.25
2022-08-11T12:14:20.958Z,1.00
2022-08-11T12:16:48.366Z,1.20
2022-08-11T12:19:22.073Z,1.00
2022-08-11T12:22:16.480Z,1.05
2022-08-11T12:25:01.823Z,1.10
2022-08-11T12:27:30.252Z,1.10
2022-08-11T12:30:05.946Z,1.20
2022-08-11T12:32:35.675Z,1.05
2022-08-11T12:35:02.689Z,1.10
2022-08-11T12:37:37.103Z,1.42
2022-08-11T12:40:43.782Z,1.20
2022-08-11T12:43:38.896Z,1.25
2022-08-11T12:46:09.514Z,1.23
2022-08-11T12:49:01.224Z,1.40
2022-08-11T12:52:02.999Z,1.10
2022-08-11T12:54:43.217Z,1.10
2022-08-11T12:57:36.425Z,1.65
2022-08-11T13:03:29.156Z,1.33
2022-08-11T13:05:58.055Z,1.10
2022-08-11T13:08:25.998Z,0.90
2022-08-11T13:11:13.124Z,1.23
2022-08-11T13:13:54.215Z,1.20
2022-08-11T13:16:25.479Z,1.27
2022-08-11T13:18:53.737Z,1.25
2022-08-11T13:21:21.592Z,1.30
2022-08-11T13:24:01.264Z,1.40
2022-08-11T13:26:47.900Z,1.60
2022-08-11T13:29:24.745Z,1.38
2022-08-11T13:31:53.347Z,1.42
2022-08-11T13:34:20.892Z,1.40
2022-08-11T13:36:50.288Z,1.42
2022-08-11T13:39:20.351Z,1.38
2022-08-11T13:41:49.822Z,1.40
2022-08-11T13:44:23.233Z,1.33
2022-08-11T13:46:54.412Z,1.30
2022-08-11T13:49:21.300Z,1.30
2022-08-11T13:51:48.606Z,1.35
2022-08-11T13:54:53.523Z,1.02
2022-08-11T13:58:19.331Z,1.30
2022-08-11T14:00:23.634Z,1.25
2022-08-11T14:03:17.664Z,1.77
2022-08-11T14:05:51.853Z,1.45
2022-08-11T14:08:38.096Z,1.55
2022-08-11T14:12:20.479Z,1.50
2022-08-11T14:14:19.494Z,1.20
2022-08-11T14:16:46.783Z,1.85
2022-08-11T14:19:14.201Z,1.98
2022-08-11T14:22:07.111Z,1.40
2022-08-11T14:24:41.604Z,1.40
2022-08-11T14:28:29.609Z,1.40
2022-08-11T14:29:58.914Z,1.50
2022-08-11T14:32:26.114Z,1.42
2022-08-11T14:34:54.444Z,1.27
2022-08-11T14:37:25.390Z,1.30
2022-08-11T14:40:00.735Z,1.88
2022-08-11T14:42:48.419Z,1.40
2022-08-11T14:45:57.406Z,1.33
2022-08-11T14:48:23.140Z,1.50
2022-08-11T14:50:49.803Z,1.17
2022-08-11T14:53:18.715Z,1.40
2022-08-11T14:56:04.008Z,1.33
2022-08-11T14:58:34.039Z,1.80
2022-08-11T15:01:01.953Z,1.60
2022-08-11T15:03:31.618Z,1.75
2022-08-11T15:06:03.989Z,1.40
2022-08-11T15:12:32.823Z,1.63
2022-08-11T15:15:22.802Z,1.63
2022-08-11T15:17:50.999Z,1.73
2022-08-11T15:20:37.734Z,1.30
2022-08-11T15:23:28.996Z,1.50
2022-08-11T15:26:11.763Z,1.30
2022-08-11T15:29:01.428Z,1.50
2022-08-11T15:31:49.410Z,1.42
2022-08-11T15:34:36.790Z,1.40
2022-08-11T15:37:26.376Z,1.73
2022-08-11T15:40:32.100Z,1.45
2022-08-11T15:43:29.325Z,1.48
2022-08-11T15:46:02.193Z,1.58
2022-08-11T15:48:42.661Z,1.63
2022-08-11T15:51:09.231Z,1.50
2022-08-11T15:53:41.897Z,1.40
2022-08-11T15:56:10.046Z,1.40
2022-08-11T15:59:41.114Z,1.27
2022-08-11T16:02:06.456Z,1.40
2022-08-11T16:04:35.128Z,1.30
2022-08-11T16:07:02.405Z,1.35
2022-08-11T16:09:52.641Z,1.80
2022-08-11T16:12:32.504Z,1.40
2022-08-11T16:15:20.838Z,1.40
2022-08-11T16:17:52.262Z,1.20
2022-08-11T16:20:25.143Z,1.20
2022-08-11T16:23:01.811Z,1.38
2022-08-11T16:27:03.979Z,1.45
2022-08-11T16:28:17.464Z,1.17
2022-08-11T16:30:46.426Z,1.40
2022-08-11T16:33:50.762Z,0.90
2022-08-11T16:36:18.532Z,1.10
2022-08-11T16:38:46.042Z,1.33
2022-08-11T16:41:14.504Z,1.70
2022-08-11T16:44:04.203Z,1.30
2022-08-11T16:46:49.792Z,0.90
2022-08-11T16:49:27.824Z,0.80
2022-08-11T16:51:57.221Z,1.58
2022-08-11T16:54:23.784Z,1.20
2022-08-11T16:56:54.423Z,1.10
2022-08-11T16:59:24.536Z,1.10
2022-08-11T17:01:53.831Z,1.05
2022-08-11T17:05:09.880Z,0.95
2022-08-11T17:07:57.150Z,1.35
2022-08-11T17:10:52.424Z,1.00
2022-08-11T17:13:29.449Z,0.85
2022-08-11T17:16:13.127Z,1.10
2022-08-11T17:18:58.840Z,0.88
2022-08-11T17:21:30.291Z,1.00
2022-08-11T17:24:08.464Z,1.02
2022-08-11T17:26:56.899Z,1.63
2022-08-11T17:29:54.548Z,0.90
2022-08-11T17:32:56.757Z,0.98
2022-08-11T17:35:32.530Z,0.82
2022-08-11T17:38:16.259Z,0.85
2022-08-11T17:41:05.834Z,1.00
2022-08-11T17:43:51.417Z,0.80
2022-08-11T17:46:37.414Z,0.88
2022-08-11T17:49:07.668Z,0.85
2022-08-11T17:51:53.384Z,0.93
2022-08-11T17:54:39.835Z,1.30
2022-08-11T17:57:28.511Z,0.82
2022-08-11T17:59:57.022Z,0.93
2022-08-11T18:02:48.806Z,0.80
2022-08-11T18:05:18.260Z,0.95
2022-08-11T18:08:04.564Z,1.10
2022-08-11T18:10:50.558Z,1.50
2022-08-11T18:13:43.338Z,1.58
2022-08-11T18:16:28.928Z,1.00
2022-08-11T18:19:14.214Z,1.10
2022-08-11T18:22:14.977Z,1.20
2022-08-11T18:25:07.684Z,1.20
2022-08-11T18:27:53.867Z,1.10
2022-08-11T18:30:38.773Z,1.10
2022-08-11T18:33:50.636Z,1.00
2022-08-11T18:36:33.662Z,1.02
2022-08-11T18:39:19.582Z,1.25
2022-08-11T18:42:06.092Z,1.00
2022-08-11T18:44:53.241Z,1.58
2022-08-11T18:47:40.722Z,1.10
2022-08-11T18:50:38.844Z,1.67
2022-08-11T18:53:25.835Z,1.20
2022-08-11T18:56:11.230Z,1.60
2022-08-11T18:59:00.692Z,1.05
2022-08-11T19:01:46.364Z,1.58
2022-08-11T19:04:32.085Z,1.50
2022-08-11T19:07:23.542Z,1.30
2022-08-11T19:10:09.594Z,1.23
2022-08-11T19:12:58.087Z,1.40
2022-08-11T19:15:43.683Z,1.65
2022-08-11T19:18:36.385Z,1.20
2022-08-11T19:21:21.458Z,1.27
2022-08-11T19:24:10.368Z,1.88
2022-08-11T19:26:56.517Z,1.20
2022-08-11T19:30:07.591Z,1.08
2022-08-11T19:32:47.618Z,1.20
2022-08-11T19:35:33.855Z,1.20
2022-08-11T19:38:18.817Z,1.00
2022-08-11T19:41:03.930Z,1.50
2022-08-11T19:43:50.051Z,0.90
2022-08-11T19:46:37.428Z,1.10
2022-08-11T19:49:23.538Z,1.20
2022-08-11T19:52:09.184Z,1.10
2022-08-11T19:54:55.385Z,1.00
2022-08-11T19:57:42.426Z,0.88
2022-08-11T20:00:36.120Z,1.10
2022-08-11T20:03:23.587Z,1.30
2022-08-11T20:06:08.745Z,1.15
2022-08-11T20:08:58.505Z,1.35
2022-08-11T20:11:45.856Z,0.93
2022-08-11T20:14:31.773Z,1.55
2022-08-11T20:17:17.956Z,1.30
2022-08-11T20:20:03.206Z,1.20
2022-08-11T20:22:52.890Z,1.30
2022-08-11T20:25:39.050Z,1.50
2022-08-11T20:28:24.788Z,1.35
2022-08-11T20:31:10.712Z,1.08
2022-08-11T20:33:57.442Z,1.50
2022-08-11T20:36:45.071Z,1.63
2022-08-11T20:39:32.693Z,1.52
2022-08-11T20:42:18.284Z,1.50
2022-08-11T20:45:04.580Z,1.63
2022-08-11T20:47:59.588Z,0.98
2022-08-11T20:50:46.477Z,1.65
2022-08-11T20:53:35.982Z,1.70
2022-08-11T20:56:28.617Z,1.60
2022-08-11T20:59:17.840Z,1.60
2022-08-11T21:02:05.492Z,1.30
2022-08-11T21:04:55.731Z,1.52
2022-08-11T21:07:42.521Z,0.98
2022-08-11T21:10:29.218Z,1.83
2022-08-11T21:13:26.093Z,1.58
2022-08-11T21:16:25.454Z,1.10
2022-08-11T21:19:16.379Z,1.90
2022-08-11T21:22:03.519Z,1.80
2022-08-11T21:24:48.789Z,1.52
2022-08-11T21:27:35.415Z,1.38
2022-08-11T21:30:21.341Z,1.48
2022-08-11T21:33:06.862Z,1.58
2022-08-11T21:35:52.027Z,1.67
2022-08-11T21:38:37.039Z,1.38
2022-08-11T21:41:22.287Z,1.65
2022-08-11T21:44:08.651Z,1.33
2022-08-11T21:46:55.243Z,1.40
2022-08-11T21:49:41.788Z,1.90
2022-08-11T21:52:27.336Z,3.10
2022-08-11T21:55:13.107Z,2.20
2022-08-11T21:57:59.417Z,1.90
2022-08-11T22:00:44.507Z,2.13
2022-08-11T22:03:29.401Z,2.20
2022-08-11T22:06:19.924Z,2.45
2022-08-11T22:09:06.165Z,2.10
2022-08-11T22:11:50.952Z,2.03
2022-08-11T22:14:56.309Z,2.60
2022-08-11T22:17:41.278Z,2.80
2022-08-11T22:20:29.987Z,1.92
2022-08-11T22:23:17.419Z,1.95
2022-08-11T22:26:07.341Z,2.40
2022-08-11T22:28:59.251Z,2.72
2022-08-11T22:31:44.504Z,2.45
2022-08-11T22:34:30.461Z,2.80
2022-08-11T22:37:27.201Z,3.00
2022-08-11T22:40:13.050Z,2.70
2022-08-11T22:42:57.813Z,2.47
2022-08-11T22:45:42.706Z,2.42
2022-08-11T22:51:14.282Z,2.55
2022-08-11T22:53:59.723Z,2.72
2022-08-11T22:56:49.504Z,3.22
2022-08-11T22:59:36.140Z,2.67
2022-08-11T23:02:22.906Z,3.50
2022-08-11T23:05:09.155Z,3.53
2022-08-11T23:07:55.235Z,2.38
2022-08-11T23:10:41.612Z,2.40
2022-08-11T23:13:30.751Z,2.45
2022-08-11T23:16:16.256Z,2.45
2022-08-11T23:19:01.375Z,2.78
2022-08-11T23:21:47.328Z,2.10
2022-08-11T23:24:33.281Z,2.90
2022-08-11T23:27:18.737Z,2.63
2022-08-11T23:30:06.420Z,1.33
2022-08-11T23:32:56.629Z,2.17
2022-08-11T23:35:53.591Z,3.47
2022-08-11T23:38:41.933Z,2.88
2022-08-11T23:41:26.906Z,3.03
2022-08-11T23:44:11.900Z,1.92
2022-08-11T23:46:58.281Z,3.20
2022-08-11T23:49:43.427Z,2.00
2022-08-11T23:52:28.679Z,2.13
2022-08-11T23:55:14.356Z,2.90
2022-08-11T23:58:03.055Z,2.25
